Fort Wayne, IN

2:45 PM EDT on August 27, 2016 (GMT -0400)
Oakdale | | Change Station

Elev 794 ft 41.05 °N, 85.14 °W | Updated 1 minute ago

Mostly Cloudy
Mostly Cloudy
84.2 °F
Feels Like 89 °F
N
0.0
Wind Variable Wind from WSW

Today
High -- | Low -- °F
--% Chance of Precip.
Yesterday
High -- | Low -- °F
Precip. -- in
Pressure 30.10 in
Visibility 10.0 miles
Clouds Scattered Clouds 12000 ft
Mostly Cloudy 20000 ft
Heat Index 89 °F
Dew Point 71 °F
Humidity 64%
Rainfall 0.00 in
Snow Depth Not available.
7:02 AM 8:20 PM
Waning Crescent, 22% visible
METAR KFWA 271754Z 15005KT 10SM SCT120 BKN200 26/21 A3011 RMK AO2 SLP192 60000 T02560206 10283 20217 56003
Pressure 30.10 in
Visibility 10.0 miles
Clouds Scattered Clouds 12000 ft
Mostly Cloudy 20000 ft
Heat Index 89 °F
Dew Point 71 °F
Humidity 64%
Rainfall 0.00 in
Snow Depth Not available.
7:02 AM 8:20 PM
Waning Crescent, 22% visible
METAR KFWA 271754Z 15005KT 10SM SCT120 BKN200 26/21 A3011 RMK AO2 SLP192 60000 T02560206 10283 20217 56003

10-Day Weather Forecast

Almanac

Astronomy

Aug. 27, 2016 Rise Set
Actual Time
Civil Twilight
Nautical Twilight
Astronomical Twilight
Moon
Length of Visible Light
Length of Day
Tomorrow will be .
, % of the Moon is Illuminated

Today's Extremes

State Highs State Lows

Community

WunderPhotos

Upload Photos

1,935,399 photos uploaded!

WunderBlog® & News

Nearby

Air Quality

  Air Quality AQ Index Pollutant
Not available.

Snow Depth

Station Depth Elevation

Earthquake Activity

City Distance Mag. Time & Date
Minimum magnitude displayed is 2.5.

Coastal Water Temperatures

Place Temperature

Stations

Nearby Weather Stations

Station Location Temp. Windchill Dew Point Humidity Wind Precip. Elev Updated Type
                   

Watches & Warnings

There are currently no watches in effect.